Antigonish, Canada
Current Conditions -  °F | °C
As of 4:24 PM on Monday 26 Jan 2015 (Local Time) from CYPD Reporting Station
Scattered Clouds Scattered Clouds  
Wind Chill:   Ceiling: Unl
Heat Index: 14°   Visibility: 9mi
Dew Point:   Wind: 12mph
Humidity: 67%   Direction: 300°WNW
Pressure: 30.19"   Gusts: 18mph
Location:  45.62°N, 61.99°W
Report Text: CYPD 262024Z AUTO 30010G16KT 9SM SCT018 M10/M15 A3019 RMK SLP232
Loading
Personal Weather Stations






























Interactive Weather Map New forecast layout! Learn more

10-Day Weather Forecast

Advertisements
Track Severe Weather on mobile